• Join FlightAware (Why Join?)
  • Login
  • US Flag 
10:50PM EDT


 

Airport Tracker/Info


-or-


 

Live Flight TrackerFlight Track Log ✈ CSN3797 ✈ 06-Feb-2014 ✈ ZGSZ / SZX - ZSHC / HGH

Flight Track Log - Related Links

Times and Time Zones

All times are in EST time to prevent confusion due to time zone crossing. See the CSN3797 flight status page for this flight to view local times or setup timezone preferences in your user account.

Time Position Orientation Groundspeed Altitude Reporting Facility
EST Latitude Longitude Course Direction KTS MPH feet Rate Location/Type
11:16PM 22.7349 113.8892 37° Northeast  Level Estimated
11:17PM 22.8304 113.9661 37° Northeast  Level Estimated
11:18PM 22.9257 114.0431 37° Northeast  Level Estimated
11:19PM 23.0211 114.1202 37° Northeast  Level Estimated
11:20PM 23.1141 114.1955 37° Northeast  Level Estimated
11:21PM 23.2071 114.2710 37° Northeast  Level Estimated
11:22PM 23.3000 114.3466 37° Northeast  Level Estimated
11:23PM 23.3929 114.4222 37° Northeast  Level Estimated
11:24PM 23.4858 114.4980 37° Northeast  Level Estimated
11:25PM 23.5786 114.5739 37° Northeast  Level Estimated
11:26PM 23.6714 114.6499 37° Northeast  Level Estimated
11:27PM 23.7642 114.7260 37° Northeast  Level Estimated
11:28PM 23.8569 114.8022 37° Northeast  Level Estimated
11:29PM 23.9496 114.8785 37° Northeast  Level Estimated
11:30PM 24.0423 114.9549 37° Northeast  Level Estimated
11:31PM 24.1349 115.0314 37° Northeast  Level Estimated
11:32PM 24.2274 115.1081 37° Northeast  Level Estimated
11:33PM 24.3200 115.1849 37° Northeast  Level Estimated
11:34PM 24.4125 115.2617 37° Northeast  Level Estimated
11:35PM 24.5049 115.3387 37° Northeast  Level Estimated
11:36PM 24.5973 115.4158 37° Northeast  Level Estimated
11:37PM 24.6897 115.4930 37° Northeast  Level Estimated
11:38PM 24.7821 115.5703 37° Northeast  Level Estimated
11:39PM 24.8744 115.6478 37° Northeast  Level Estimated
11:40PM 24.9666 115.7253 37° Northeast  Level Estimated
11:41PM 25.0588 115.8030 37° Northeast  Level Estimated
11:42PM 25.1510 115.8808 37° Northeast  Level Estimated
11:43PM 25.2432 115.9587 37° Northeast  Level Estimated
11:44PM 25.3353 116.0367 37° Northeast  Level Estimated
11:45PM 25.4273 116.1149 37° Northeast  Level Estimated
11:46PM 25.5193 116.1931 38° Northeast  Level Estimated
11:47PM 25.6113 116.2715 38° Northeast  Level Estimated
11:48PM 25.7032 116.3500 38° Northeast  Level Estimated
11:49PM 25.7951 116.4286 38° Northeast  Level Estimated
11:50PM 25.8869 116.5074 38° Northeast  Level Estimated
11:51PM 25.9787 116.5862 38° Northeast  Level Estimated
11:52PM 26.0705 116.6652 38° Northeast  Level Estimated
11:53PM 26.1622 116.7443 38° Northeast  Level Estimated
11:54PM 26.2539 116.8236 38° Northeast  Level Estimated
11:55PM 26.3455 116.9029 38° Northeast  Level Estimated
11:56PM 26.4371 116.9824 38° Northeast  Level Estimated
11:57PM 26.5287 117.0621 38° Northeast  Level Estimated
11:58PM 26.6201 117.1418 38° Northeast  Level Estimated
11:59PM 26.7116 117.2217 38° Northeast  Level Estimated
12:00AM 26.8030 117.3017 38° Northeast  Level Estimated
12:01AM 26.8944 117.3818 38° Northeast  Level Estimated
12:02AM 26.9857 117.4621 38° Northeast  Level Estimated
12:03AM 27.0770 117.5424 38° Northeast  Level Estimated
12:04AM 27.1682 117.6230 38° Northeast  Level Estimated
12:05AM 27.2594 117.7036 38° Northeast  Level Estimated
12:06AM 27.3505 117.7844 38° Northeast  Level Estimated
12:07AM 27.4416 117.8653 38° Northeast  Level Estimated
12:08AM 27.5326 117.9464 38° Northeast  Level Estimated
12:09AM 27.6236 118.0276 38° Northeast  Level Estimated
12:10AM 27.7146 118.1089 38° Northeast  Level Estimated
12:11AM 27.8055 118.1904 38° Northeast  Level Estimated
12:12AM 27.8963 118.2719 38° Northeast  Level Estimated
12:13AM 27.9871 118.3537 38° Northeast  Level Estimated
12:14AM 28.0779 118.4355 39° Northeast  Level Estimated
12:15AM 28.1686 118.5175 39° Northeast  Level Estimated
12:16AM 28.2592 118.5997 39° Northeast  Level Estimated
12:17AM 28.3498 118.6820 39° Northeast  Level Estimated
12:18AM 28.4404 118.7644 39° Northeast  Level Estimated
12:19AM 28.5309 118.8470 39° Northeast  Level Estimated
12:20AM 28.6214 118.9297 39° Northeast  Level Estimated
12:21AM 28.7118 119.0126 39° Northeast  Level Estimated
12:22AM 28.8022 119.0955 39° Northeast  Level Estimated
12:23AM 28.8925 119.1787 39° Northeast  Level Estimated
12:24AM 28.9827 119.2620 39° Northeast  Level Estimated
12:25AM 29.0729 119.3454 39° Northeast  Level Estimated
12:26AM 29.1631 119.4290 39° Northeast  Level Estimated
12:27AM 29.2532 119.5127 39° Northeast  Level Estimated
12:28AM 29.3432 119.5966 39° Northeast  Level Estimated
12:29AM 29.4332 119.6806 39° Northeast  Level Estimated
12:30AM 29.5232 119.7647 39° Northeast  Level Estimated
12:31AM 29.6131 119.8491 39° Northeast  Level Estimated
12:32AM 29.7029 119.9335 39° Northeast  Level Estimated
12:33AM 29.7927 120.0182 39° Northeast  Level Estimated
12:34AM 29.8824 120.1029 39° Northeast  Level Estimated
12:35AM 29.9721 120.1879 39° Northeast  Level Estimated
12:36AM 30.0617 120.2729 39° Northeast  Level Estimated
12:37AM 30.1513 120.3582 39° Northeast  Level Estimated
12:38AM 30.2283 120.4317 39° Northeast  Level Estimated
12:39AM 30.2283 120.4317 319° Northwest  Level Estimated
12:40AM 30.2283 120.4317 319° Northwest  Level Estimated
12:41AM 30.2283 120.4317 319° Northwest  Level Estimated
12:42AM 30.2283 120.4317 319° Northwest  Level Estimated
12:43AM 30.2283 120.4317 319° Northwest  Level Estimated
12:44AM 30.2283 120.4317 319° Northwest  Level Estimated
12:45AM 30.2283 120.4317 319° Northwest  Level Estimated